Estación Meteorológica Peña el Pijo (Robertgarden) [ 02/03/23 02:47:23 CET ]

Fecha Hora Presion(HPa) Temp (°C) Humedad % Rocio (°C) Viento ( m/s) Direccion Lluvia 1Hora(mm) Lluvia 24H(mm) LLuvia Total(mm)
2012-Mar-14 01:01:13 1016.700 3.7 55 -4.6         153.32
2012-Mar-14 02:03:11 1016.800 2.9 57 -4.8         153.32
2012-Mar-14 03:01:18 1016.800 2.1 60 -4.8         153.32
2012-Mar-14 04:01:16 1016.500 1.3 62 -5.2         153.32
2012-Mar-14 05:01:12 1016.100 1.3 64 -4.8         153.32
2012-Mar-14 06:01:14 1016.200 0.7 70 -4.2         153.32
2012-Mar-14 07:01:16 1016.600 0.6 72 -3.9         153.32
2012-Mar-14 08:01:13 1016.700 0.5 74 -3.6         153.32
2012-Mar-14 09:01:13 1016.900 7.9 59 0.4         153.32
2012-Mar-14 10:01:16 1017.200 14.6 40 1.1         153.32
2012-Mar-14 11:01:14 1017.400 20.4 26 0.0         153.32
2012-Mar-14 12:01:14 1017.000 22.1 21 -1.4         153.32
2012-Mar-14 13:01:12 1016.700 23.3 19 -1.8         153.32
2012-Mar-14 14:01:12 1016.200 24.2 17 -2.9         153.32
2012-Mar-14 15:01:13 1015.700 24.1 17 -3.0 0.4 E     153.32
2012-Mar-14 16:01:17 1015.700 24.3 16 -3.7 1.5 NNE     153.32
2012-Mar-14 17:01:16 1015.500 22.9 17 -3.9         153.32
2012-Mar-14 18:01:17 1015.900 20.7 19 -3.9         153.32
2012-Mar-14 19:01:15 1016.400 17.3 25 -3.1         153.32
2012-Mar-14 20:01:16 1017.000 13.5 30 -3.8         153.32
2012-Mar-14 21:01:13 1017.700 10.1 36 -4.4         153.32
2012-Mar-14 22:01:13 1018.400 6.5 44 -5.0         153.32
2012-Mar-14 23:01:13 1018.500 4.8 51 -4.5         153.32

Temperatura Máxima:24°    Temperatura Mínima:
Presión Máxima:1018.500 Hpa    Presión Mínima:1015.500 Hpa


Volver